Time;durP1;ratioP1;P1;durP2;ratioP2;P2;SDS_P1;SDS_P2;PMS_P1;PMS_P2;Temp;Humidity;BMP_temperature;BMP_pressure;BME280_temperature;BME280_humidity;BME280_pressure;Samples;Min_cycle;Max_cycle;Signal;HPM_P1;HPM_P2
2022/06/21 00:01:25;;;;;;;4.82;3.08;;;;;;;;;;5111267;28;20024;-70
2022/06/21 00:06:02;;;;;;;3.92;2.50;;;;;;;;;;5112029;27;20781;-70
2022/06/21 00:10:38;;;;;;;4.53;2.67;;;;;;;;;;5111040;27;20422;-70
2022/06/21 00:13:10;;;;;;;4.78;2.80;;;;;;;;;;5111162;28;20030;-70
2022/06/21 00:17:28;;;;;;;3.95;2.53;;;;;;;;;;5110931;27;20380;-70
2022/06/21 00:19:54;;;;;;;5.97;3.03;;;;;;;;;;5111318;28;20107;-71
2022/06/21 00:22:21;;;;;;;5.03;3.33;;;;;;;;;;5111268;28;20045;-70
2022/06/21 00:24:47;;;;;;;6.57;3.63;;;;;;;;;;5110798;28;20476;-70
2022/06/21 00:27:42;;;;;;;6.72;3.70;;;;;;;;;;5111876;27;20648;-70
2022/06/21 00:30:09;;;;;;;6.88;3.58;;;;;;;;;;5110879;28;20056;-71
2022/06/21 00:32:35;;;;;;;7.60;3.33;;;;;;;;;;5111141;28;20463;-70
2022/06/21 00:35:01;;;;;;;8.48;3.00;;;;;;;;;;5111244;28;20497;-71
2022/06/21 00:37:28;;;;;;;6.05;3.13;;;;;;;;;;5110857;28;20016;-71
2022/06/21 00:40:17;;;;;;;11.35;4.93;;;;;;;;;;5111505;27;20389;-72
2022/06/21 00:42:45;;;;;;;11.77;4.57;;;;;;;;;;5111294;28;20380;-72
2022/06/21 00:46:26;;;;;;;10.07;4.88;;;;;;;;;;5110902;27;20912;-70
2022/06/21 00:48:53;;;;;;;9.45;4.50;;;;;;;;;;5111497;28;20060;-71
2022/06/21 00:51:23;;;;;;;6.55;3.63;;;;;;;;;;5111044;28;20016;-71
2022/06/21 00:53:53;;;;;;;6.97;3.80;;;;;;;;;;5111189;28;20383;-71
2022/06/21 00:58:30;;;;;;;7.57;4.47;;;;;;;;;;5111320;27;20911;-71
2022/06/21 01:01:14;;;;;;;6.68;3.38;;;;;;;;;;5111226;28;20028;-72
2022/06/21 01:05:04;;;;;;;6.57;3.67;;;;;;;;;;5111502;27;20457;-70
2022/06/21 01:07:31;;;;;;;7.93;3.40;;;;;;;;;;5110823;28;20042;-71
2022/06/21 01:10:03;;;;;;;4.80;2.92;;;;;;;;;;5111111;28;20056;-71
2022/06/21 01:13:00;;;;;;;5.10;2.85;;;;;;;;;;5111323;27;20389;-70
2022/06/21 01:15:39;;;;;;;5.65;3.05;;;;;;;;;;5112001;27;20385;-70
2022/06/21 01:19:15;;;;;;;4.68;2.92;;;;;;;;;;5111756;27;20393;-70
2022/06/21 01:23:23;;;;;;;5.18;2.80;;;;;;;;;;5111346;27;20762;-70
2022/06/21 01:25:50;;;;;;;4.07;2.42;;;;;;;;;;5111401;28;20099;-71
2022/06/21 01:30:57;;;;;;;5.10;2.75;;;;;;;;;;5112032;27;20414;-71
2022/06/21 01:33:31;;;;;;;7.10;3.15;;;;;;;;;;5111099;28;20519;-71
2022/06/21 01:35:59;;;;;;;6.40;3.10;;;;;;;;;;5111208;28;20099;-70
2022/06/21 01:38:30;;;;;;;5.88;3.33;;;;;;;;;;5111145;28;20028;-70
2022/06/21 01:40:59;;;;;;;4.90;3.30;;;;;;;;;;5110863;28;20456;-70
2022/06/21 01:43:28;;;;;;;6.45;3.17;;;;;;;;;;5109763;28;20024;-70
2022/06/21 01:46:00;;;;;;;5.75;3.30;;;;;;;;;;5110955;28;20061;-70
2022/06/21 01:48:32;;;;;;;5.22;2.80;;;;;;;;;;5110461;28;20107;-70
2022/06/21 01:52:43;;;;;;;5.80;2.80;;;;;;;;;;5111730;27;20418;-71
2022/06/21 01:55:13;;;;;;;5.82;3.60;;;;;;;;;;5110891;28;20110;-70
2022/06/21 01:57:39;;;;;;;6.47;3.30;;;;;;;;;;5111185;28;20065;-70
2022/06/21 02:00:07;;;;;;;4.80;3.22;;;;;;;;;;5111720;28;20051;-71
2022/06/21 02:03:08;;;;;;;5.63;3.00;;;;;;;;;;5110670;28;20533;-71
2022/06/21 02:05:38;;;;;;;4.28;2.40;;;;;;;;;;5048466;28;20029;-71
2022/06/21 02:09:43;;;;;;;5.68;2.60;;;;;;;;;;5111214;27;20993;-70
2022/06/21 02:12:12;;;;;;;5.22;3.05;;;;;;;;;;5111373;28;20046;-70
2022/06/21 02:15:18;;;;;;;4.40;2.80;;;;;;;;;;5111785;27;20777;-70
2022/06/21 02:17:45;;;;;;;4.47;3.03;;;;;;;;;;5110831;28;20099;-71
2022/06/21 02:20:29;;;;;;;5.80;3.17;;;;;;;;;;5070793;28;20392;-70
2022/06/21 02:22:55;;;;;;;3.97;3.08;;;;;;;;;;5070436;28;20056;-70
2022/06/21 02:25:23;;;;;;;4.55;3.13;;;;;;;;;;5070614;28;20507;-70
2022/06/21 02:27:50;;;;;;;7.00;3.33;;;;;;;;;;5070841;28;20029;-70
2022/06/21 02:30:21;;;;;;;5.82;3.58;;;;;;;;;;5070178;28;20045;-71
2022/06/21 02:34:44;;;;;;;5.95;3.25;;;;;;;;;;5111737;27;20465;-71
2022/06/21 02:38:33;;;;;;;6.00;3.30;;;;;;;;;;5110973;27;20961;-70
2022/06/21 02:41:07;;;;;;;4.57;2.50;;;;;;;;;;5111207;28;20020;-70
2022/06/21 02:44:38;;;;;;;5.82;3.28;;;;;;;;;;5111084;27;20452;-70
2022/06/21 02:47:14;;;;;;;5.50;3.22;;;;;;;;;;5110045;28;20140;-70
2022/06/21 02:50:46;;;;;;;5.35;3.10;;;;;;;;;;5110887;27;20405;-71
2022/06/21 02:53:16;;;;;;;5.00;3.00;;;;;;;;;;5111334;28;20023;-71
2022/06/21 03:01:24;;;;;;;6.03;3.33;;;;;;;;;;5111844;27;20418;-70
2022/06/21 03:03:50;;;;;;;6.40;3.22;;;;;;;;;;5111189;28;20031;-70
2022/06/21 03:06:18;;;;;;;6.82;3.50;;;;;;;;;;5110722;28;20019;-70
2022/06/21 03:08:53;;;;;;;4.95;2.70;;;;;;;;;;5111127;28;20149;-70
2022/06/21 03:11:41;;;;;;;6.85;2.83;;;;;;;;;;5111445;27;20411;-70
2022/06/21 03:15:57;;;;;;;5.20;3.33;;;;;;;;;;5111988;27;20834;-71
2022/06/21 03:20:27;;;;;;;6.15;3.20;;;;;;;;;;5111239;27;20447;-71
2022/06/21 03:23:35;;;;;;;6.18;3.25;;;;;;;;;;5111435;27;20380;-70
2022/06/21 03:26:02;;;;;;;6.88;3.17;;;;;;;;;;5110839;28;20043;-71
2022/06/21 03:28:30;;;;;;;5.63;2.88;;;;;;;;;;5111179;28;20019;-71
2022/06/21 03:32:24;;;;;;;4.53;2.85;;;;;;;;;;5111640;27;20393;-70
2022/06/21 03:34:50;;;;;;;5.47;2.83;;;;;;;;;;5110867;28;20024;-71
2022/06/21 03:39:15;;;;;;;5.05;3.00;;;;;;;;;;5111842;27;20458;-70
2022/06/21 03:41:43;;;;;;;5.25;3.03;;;;;;;;;;5109570;28;20031;-71
2022/06/21 03:44:27;;;;;;;7.15;3.33;;;;;;;;;;5111233;28;20099;-70
2022/06/21 03:47:16;;;;;;;11.02;3.28;;;;;;;;;;5110925;28;20039;-70
2022/06/21 03:49:46;;;;;;;5.38;3.10;;;;;;;;;;5082647;28;20498;-70
2022/06/21 03:52:42;;;;;;;4.97;3.13;;;;;;;;;;5111070;28;20032;-70
2022/06/21 03:55:08;;;;;;;7.18;2.95;;;;;;;;;;5110940;28;20027;-70
2022/06/21 03:57:36;;;;;;;4.20;2.80;;;;;;;;;;5110902;28;20032;-70
2022/06/21 04:00:51;;;;;;;5.00;3.40;;;;;;;;;;5071398;28;20396;-70
2022/06/21 04:03:17;;;;;;;5.60;3.20;;;;;;;;;;5070362;28;20436;-70
2022/06/21 04:05:55;;;;;;;5.20;3.00;;;;;;;;;;5070608;28;20104;-70
2022/06/21 04:09:25;;;;;;;7.15;3.47;;;;;;;;;;5111084;27;20124;-70
2022/06/21 04:11:57;;;;;;;5.93;3.17;;;;;;;;;;5089612;28;20047;-70
2022/06/21 04:14:29;;;;;;;6.45;3.70;;;;;;;;;;5091088;28;20036;-70
2022/06/21 04:19:27;;;;;;;7.95;3.88;;;;;;;;;;5111394;27;20401;-70
2022/06/21 04:22:02;;;;;;;4.22;2.85;;;;;;;;;;5111479;28;20027;-70
2022/06/21 04:24:42;;;;;;;7.88;3.50;;;;;;;;;;5111905;28;20397;-70
2022/06/21 04:29:43;;;;;;;3.97;2.60;;;;;;;;;;5111135;27;20381;-70
2022/06/21 04:34:25;;;;;;;6.07;3.67;;;;;;;;;;5112040;27;20381;-70
2022/06/21 04:36:55;;;;;;;6.53;3.83;;;;;;;;;;5111307;28;20479;-69
2022/06/21 04:42:01;;;;;;;6.03;3.78;;;;;;;;;;5111433;27;20397;-71
2022/06/21 04:45:12;;;;;;;6.72;3.20;;;;;;;;;;5111095;27;20405;-71
2022/06/21 04:47:44;;;;;;;5.25;3.13;;;;;;;;;;5111447;28;20024;-70
2022/06/21 04:50:17;;;;;;;5.80;3.17;;;;;;;;;;5110918;28;20107;-71
2022/06/21 04:52:46;;;;;;;4.13;2.75;;;;;;;;;;5111016;28;20601;-72
2022/06/21 04:55:16;;;;;;;7.03;3.10;;;;;;;;;;5111004;28;20472;-72
2022/06/21 04:59:06;;;;;;;4.32;2.58;;;;;;;;;;5111010;27;20400;-72
2022/06/21 05:01:37;;;;;;;6.07;3.35;;;;;;;;;;5127079;28;20467;-71
2022/06/21 05:06:02;;;;;;;7.25;3.63;;;;;;;;;;5111047;27;20915;-72
2022/06/21 05:09:01;;;;;;;6.55;3.58;;;;;;;;;;5111320;27;20923;-72
2022/06/21 05:12:08;;;;;;;6.60;3.53;;;;;;;;;;5110963;27;20396;-72
2022/06/21 05:14:37;;;;;;;6.45;3.78;;;;;;;;;;5111438;28;20031;-71
2022/06/21 05:17:05;;;;;;;6.32;3.67;;;;;;;;;;5111549;28;20024;-72
2022/06/21 05:19:36;;;;;;;7.85;3.75;;;;;;;;;;5110755;28;20116;-72
2022/06/21 05:22:07;;;;;;;9.50;4.03;;;;;;;;;;5111072;28;20062;-72
2022/06/21 05:24:33;;;;;;;8.73;4.38;;;;;;;;;;5111068;28;20020;-72
2022/06/21 05:27:04;;;;;;;9.90;4.47;;;;;;;;;;5106291;28;20106;-71
2022/06/21 05:29:37;;;;;;;8.75;4.63;;;;;;;;;;5111725;28;20106;-71
2022/06/21 05:32:04;;;;;;;8.40;4.65;;;;;;;;;;5108695;28;20116;-71
2022/06/21 05:34:39;;;;;;;6.97;3.92;;;;;;;;;;5109118;28;20508;-71
2022/06/21 05:37:20;;;;;;;6.75;4.25;;;;;;;;;;5110088;28;20062;-70
2022/06/21 05:39:49;;;;;;;6.65;3.78;;;;;;;;;;5129842;28;20020;-71
2022/06/21 05:42:16;;;;;;;6.00;3.30;;;;;;;;;;5129220;28;20479;-70
2022/06/21 05:44:46;;;;;;;10.50;4.10;;;;;;;;;;5129485;28;20020;-72
2022/06/21 05:52:56;;;;;;;6.70;3.65;;;;;;;;;;5090625;27;20424;-71
2022/06/21 05:55:28;;;;;;;7.95;4.05;;;;;;;;;;5083268;28;20035;-71
2022/06/21 05:57:56;;;;;;;7.22;3.95;;;;;;;;;;5090232;28;20099;-71
2022/06/21 06:00:28;;;;;;;10.13;3.90;;;;;;;;;;5090580;28;20028;-71
2022/06/21 06:02:57;;;;;;;7.20;3.80;;;;;;;;;;5090010;28;20025;-72
2022/06/21 06:05:31;;;;;;;8.15;3.33;;;;;;;;;;5090548;28;20031;-69
2022/06/21 06:08:00;;;;;;;6.80;3.80;;;;;;;;;;5070007;28;20121;-69
2022/06/21 06:16:38;;;;;;;9.05;3.67;;;;;;;;;;5068322;28;20407;-67
2022/06/21 06:19:10;;;;;;;9.43;3.75;;;;;;;;;;5070361;28;20029;-68
2022/06/21 06:21:48;;;;;;;7.40;3.53;;;;;;;;;;5068579;28;20029;-69
2022/06/21 06:24:19;;;;;;;7.25;3.72;;;;;;;;;;5068560;28;20028;-68
2022/06/21 06:27:22;;;;;;;6.25;3.70;;;;;;;;;;5107912;27;20408;-69
2022/06/21 06:30:56;;;;;;;5.80;3.45;;;;;;;;;;5109979;27;20381;-70
2022/06/21 06:33:31;;;;;;;6.93;3.72;;;;;;;;;;5109566;28;20031;-71
2022/06/21 06:36:00;;;;;;;8.55;3.42;;;;;;;;;;5110381;28;20097;-70
2022/06/21 06:38:27;;;;;;;5.80;3.08;;;;;;;;;;5115114;28;20019;-69
2022/06/21 06:41:10;;;;;;;5.60;3.17;;;;;;;;;;5128854;28;20034;-69
2022/06/21 06:43:44;;;;;;;6.05;2.92;;;;;;;;;;5122201;28;20020;-66
2022/06/21 06:49:08;;;;;;;6.15;3.05;;;;;;;;;;5108298;27;20973;-66
2022/06/21 06:51:34;;;;;;;7.97;3.50;;;;;;;;;;5122870;28;20019;-68
2022/06/21 06:55:31;;;;;;;8.32;3.30;;;;;;;;;;5108155;27;20414;-69
2022/06/21 06:58:10;;;;;;;3.85;2.53;;;;;;;;;;5107223;28;20475;-67
2022/06/21 07:00:39;;;;;;;4.50;2.83;;;;;;;;;;5108996;28;20489;-67
2022/06/21 07:03:16;;;;;;;5.18;3.20;;;;;;;;;;5108878;28;20024;-69
2022/06/21 07:06:08;;;;;;;7.00;3.10;;;;;;;;;;5108463;27;20418;-70
2022/06/21 07:10:12;;;;;;;4.97;2.60;;;;;;;;;;5069985;28;20399;-68
2022/06/21 07:12:39;;;;;;;5.70;2.75;;;;;;;;;;5064972;28;20040;-68
2022/06/21 07:15:05;;;;;;;5.65;2.85;;;;;;;;;;5066279;28;20624;-69
2022/06/21 07:17:38;;;;;;;6.10;2.78;;;;;;;;;;5064525;28;20079;-68
2022/06/21 07:22:41;;;;;;;6.22;3.03;;;;;;;;;;5103688;27;20113;-69
2022/06/21 07:25:14;;;;;;;4.45;2.83;;;;;;;;;;5082442;28;20059;-67
2022/06/21 07:27:42;;;;;;;4.03;2.85;;;;;;;;;;5071863;28;20056;-68
2022/06/21 07:30:09;;;;;;;5.32;3.10;;;;;;;;;;5081644;28;20025;-67
2022/06/21 07:32:39;;;;;;;5.40;2.70;;;;;;;;;;5084165;28;20035;-68
2022/06/21 07:35:11;;;;;;;4.35;2.70;;;;;;;;;;5075196;28;20025;-68
2022/06/21 07:37:43;;;;;;;4.60;3.63;;;;;;;;;;5087103;28;20496;-67
2022/06/21 07:41:42;;;;;;;5.43;2.85;;;;;;;;;;5060064;28;20399;-69
2022/06/21 07:44:13;;;;;;;6.65;3.55;;;;;;;;;;5054821;28;20033;-69
2022/06/21 07:46:42;;;;;;;8.80;3.45;;;;;;;;;;5047847;28;20025;-69
2022/06/21 07:49:14;;;;;;;5.65;3.28;;;;;;;;;;5048130;28;20519;-70
2022/06/21 07:51:46;;;;;;;4.32;2.80;;;;;;;;;;5048096;28;20473;-72
2022/06/21 07:54:31;;;;;;;4.50;2.65;;;;;;;;;;5049285;28;20041;-70
2022/06/21 07:56:58;;;;;;;7.00;2.80;;;;;;;;;;5051741;28;20037;-71
2022/06/21 07:59:32;;;;;;;4.30;2.97;;;;;;;;;;5049549;28;20426;-71
2022/06/21 08:07:38;;;;;;;6.70;4.07;;;;;;;;;;5046646;28;20037;-69
2022/06/21 08:10:17;;;;;;;6.25;3.03;;;;;;;;;;5046418;28;20140;-70
2022/06/21 08:12:43;;;;;;;6.32;3.22;;;;;;;;;;5046062;28;20083;-69
2022/06/21 08:15:09;;;;;;;5.20;3.13;;;;;;;;;;5049622;28;20111;-70
2022/06/21 08:17:38;;;;;;;6.30;3.20;;;;;;;;;;5047085;28;20087;-70
2022/06/21 08:20:11;;;;;;;6.10;3.33;;;;;;;;;;5039797;28;20024;-70
2022/06/21 08:22:44;;;;;;;7.55;3.17;;;;;;;;;;5034849;28;20403;-70
2022/06/21 08:25:19;;;;;;;4.07;2.70;;;;;;;;;;5036328;28;20071;-69
2022/06/21 08:28:00;;;;;;;4.55;3.03;;;;;;;;;;5036481;28;20393;-70
2022/06/21 08:30:31;;;;;;;5.75;2.97;;;;;;;;;;5058073;28;20657;-73
2022/06/21 08:32:57;;;;;;;4.35;2.90;;;;;;;;;;5042079;28;20110;-73
2022/06/21 08:35:27;;;;;;;6.15;3.13;;;;;;;;;;5047418;28;20381;-71
2022/06/21 08:37:53;;;;;;;13.25;3.50;;;;;;;;;;5061563;28;20036;-69
2022/06/21 08:40:38;;;;;;;6.38;3.38;;;;;;;;;;5048887;28;20561;-69
2022/06/21 08:43:19;;;;;;;4.50;2.97;;;;;;;;;;5050281;28;20068;-70
2022/06/21 08:46:04;;;;;;;7.10;3.20;;;;;;;;;;5049061;28;20025;-70
2022/06/21 08:48:42;;;;;;;4.28;2.95;;;;;;;;;;5055074;28;20385;-70
2022/06/21 08:51:08;;;;;;;5.15;3.15;;;;;;;;;;5046858;28;20030;-71
2022/06/21 08:53:45;;;;;;;10.35;3.60;;;;;;;;;;5028382;28;20040;-69
2022/06/21 08:56:16;;;;;;;5.63;3.33;;;;;;;;;;5033400;28;20029;-71
2022/06/21 08:58:54;;;;;;;7.38;4.70;;;;;;;;;;5034336;28;20021;-73
2022/06/21 09:01:38;;;;;;;5.30;3.25;;;;;;;;;;5046898;28;20242;-69
2022/06/21 09:04:04;;;;;;;8.07;4.03;;;;;;;;;;5034400;28;20406;-70
2022/06/21 09:06:42;;;;;;;8.98;3.97;;;;;;;;;;5035207;28;20029;-70
2022/06/21 09:09:09;;;;;;;5.55;3.40;;;;;;;;;;5016420;28;20030;-69
2022/06/21 09:11:46;;;;;;;5.93;3.30;;;;;;;;;;5040612;28;20021;-68
2022/06/21 09:14:33;;;;;;;6.95;3.63;;;;;;;;;;5035558;28;20148;-69
2022/06/21 09:17:12;;;;;;;5.35;3.60;;;;;;;;;;5035040;28;20382;-69
2022/06/21 09:19:38;;;;;;;7.63;3.78;;;;;;;;;;5038477;28;20508;-69
2022/06/21 09:22:27;;;;;;;4.90;3.33;;;;;;;;;;5043649;28;20044;-68
2022/06/21 09:24:59;;;;;;;5.50;3.63;;;;;;;;;;5046046;28;20572;-68
2022/06/21 09:27:32;;;;;;;6.85;3.63;;;;;;;;;;5052597;28;20029;-71
2022/06/21 09:29:59;;;;;;;5.43;3.80;;;;;;;;;;5037733;28;20049;-69
2022/06/21 09:32:48;;;;;;;6.50;3.47;;;;;;;;;;5034136;28;20272;-69
2022/06/21 09:35:28;;;;;;;5.47;3.60;;;;;;;;;;5027545;28;20037;-69
2022/06/21 09:37:58;;;;;;;5.80;3.72;;;;;;;;;;5031221;28;20029;-69
2022/06/21 09:40:25;;;;;;;15.18;4.28;;;;;;;;;;5050652;28;20049;-70
2022/06/21 09:42:54;;;;;;;7.00;3.72;;;;;;;;;;5052488;28;20025;-71
2022/06/21 09:45:21;;;;;;;6.20;3.55;;;;;;;;;;5040696;28;20033;-69
2022/06/21 09:48:05;;;;;;;10.05;3.55;;;;;;;;;;5033565;28;20053;-68
2022/06/21 09:50:40;;;;;;;8.38;3.65;;;;;;;;;;5031400;28;20035;-68
2022/06/21 09:53:26;;;;;;;7.60;3.90;;;;;;;;;;5014403;28;20470;-68
2022/06/21 09:56:11;;;;;;;6.82;4.03;;;;;;;;;;5031281;28;20037;-68
2022/06/21 09:58:45;;;;;;;8.32;4.05;;;;;;;;;;5033337;28;20460;-70
2022/06/21 10:01:26;;;;;;;10.52;4.70;;;;;;;;;;5036939;28;20450;-69
2022/06/21 10:03:52;;;;;;;7.30;4.03;;;;;;;;;;5023675;28;20079;-68
2022/06/21 10:06:25;;;;;;;10.07;4.18;;;;;;;;;;5039264;28;20025;-68
2022/06/21 10:08:51;;;;;;;;;;;;;;;;;;5033852;28;20025;-69
2022/06/21 10:11:43;;;;;;;7.30;3.83;;;;;;;;;;5035333;28;19913;-69
2022/06/21 10:14:21;;;;;;;7.93;3.58;;;;;;;;;;5032899;28;20482;-69
2022/06/21 10:16:53;;;;;;;7.78;4.15;;;;;;;;;;5033426;28;20021;-69
2022/06/21 10:19:35;;;;;;;7.93;4.30;;;;;;;;;;5033425;28;20529;-70
2022/06/21 10:22:02;;;;;;;;;;;;;;;;;;5033865;28;20064;-69
2022/06/21 10:24:31;;;;;;;8.70;4.30;;;;;;;;;;5034090;28;19944;-69
2022/06/21 10:27:07;;;;;;;8.60;4.00;;;;;;;;;;5033460;28;20551;-71
2022/06/21 10:29:51;;;;;;;12.15;4.20;;;;;;;;;;5041484;28;20072;-69
2022/06/21 10:32:18;;;;;;;6.97;4.03;;;;;;;;;;5028425;28;20100;-69
2022/06/21 10:34:55;;;;;;;6.68;3.85;;;;;;;;;;5033396;28;20029;-69
2022/06/21 10:37:21;;;;;;;6.55;3.60;;;;;;;;;;5033964;28;20056;-71
2022/06/21 10:39:59;;;;;;;7.40;3.55;;;;;;;;;;5032098;28;20045;-70
2022/06/21 10:45:22;;;;;;;7.97;4.80;;;;;;;;;;5033019;28;20032;-71
2022/06/21 10:47:52;;;;;;;10.10;3.97;;;;;;;;;;5032772;28;20056;-70
2022/06/21 10:50:24;;;;;;;6.05;3.50;;;;;;;;;;5034094;28;20037;-71
2022/06/21 10:52:50;;;;;;;;;;;;;;;;;;5028235;28;20211;-72
2022/06/21 10:55:19;;;;;;;8.18;3.90;;;;;;;;;;5032962;28;20002;-72
2022/06/21 10:57:55;;;;;;;9.23;4.47;;;;;;;;;;5032480;28;20096;-71
2022/06/21 11:03:18;;;;;;;10.95;5.13;;;;;;;;;;5032091;28;20044;-72
2022/06/21 11:05:53;;;;;;;8.50;4.55;;;;;;;;;;5066934;28;20044;-72
2022/06/21 11:08:20;;;;;;;7.85;4.20;;;;;;;;;;5036510;28;20096;-73
2022/06/21 11:11:02;;;;;;;7.32;4.03;;;;;;;;;;5030521;28;20028;-71
2022/06/21 11:13:44;;;;;;;6.68;3.70;;;;;;;;;;5036416;28;20029;-70
2022/06/21 11:16:18;;;;;;;9.15;4.35;;;;;;;;;;5035053;28;20025;-72
2022/06/21 11:18:49;;;;;;;14.93;5.07;;;;;;;;;;5020663;28;20032;-70
2022/06/21 11:21:24;;;;;;;7.22;4.15;;;;;;;;;;5033672;28;20041;-73
2022/06/21 11:23:59;;;;;;;7.10;4.07;;;;;;;;;;5030937;28;20076;-74
2022/06/21 11:26:37;;;;;;;10.15;4.57;;;;;;;;;;5030428;28;20120;-74
2022/06/21 11:29:15;;;;;;;9.88;5.10;;;;;;;;;;5030851;28;20029;-74
2022/06/21 11:31:54;;;;;;;14.02;4.82;;;;;;;;;;5030545;28;20056;-73
2022/06/21 11:34:38;;;;;;;8.07;4.50;;;;;;;;;;5030729;28;20021;-73
2022/06/21 11:37:07;;;;;;;8.80;4.32;;;;;;;;;;5024799;28;20037;-73
2022/06/21 11:39:35;;;;;;;9.48;4.57;;;;;;;;;;5031443;28;20156;-73
2022/06/21 11:42:12;;;;;;;7.25;4.35;;;;;;;;;;5031431;28;20028;-74
2022/06/21 11:44:38;;;;;;;11.73;5.03;;;;;;;;;;5030750;28;20025;-74
2022/06/21 11:47:07;;;;;;;9.20;4.60;;;;;;;;;;5030556;28;20311;-74
2022/06/21 11:49:43;;;;;;;7.53;4.78;;;;;;;;;;5029161;28;20095;-74
2022/06/21 11:52:22;;;;;;;9.50;5.07;;;;;;;;;;5029365;28;20024;-74
2022/06/21 11:54:53;;;;;;;7.32;4.20;;;;;;;;;;5032223;28;20048;-74
2022/06/21 11:57:27;;;;;;;8.65;4.50;;;;;;;;;;5033307;28;20026;-73
2022/06/21 12:00:15;;;;;;;6.57;4.00;;;;;;;;;;5032759;28;20034;-73
2022/06/21 12:02:58;;;;;;;11.43;4.82;;;;;;;;;;5033037;28;20026;-74
2022/06/21 12:05:43;;;;;;;7.75;4.55;;;;;;;;;;5032039;28;20076;-73
2022/06/21 12:08:24;;;;;;;8.57;4.45;;;;;;;;;;5032554;28;20030;-74
2022/06/21 12:11:01;;;;;;;9.90;4.10;;;;;;;;;;5032904;28;20021;-74
2022/06/21 12:13:42;;;;;;;10.48;4.80;;;;;;;;;;5032548;28;20041;-74
2022/06/21 12:16:16;;;;;;;9.10;4.40;;;;;;;;;;5032877;28;20038;-74
2022/06/21 12:18:45;;;;;;;9.40;3.90;;;;;;;;;;5032837;28;20276;-74
2022/06/21 12:21:13;;;;;;;8.38;4.65;;;;;;;;;;5032509;28;20139;-74
2022/06/21 12:23:51;;;;;;;10.70;4.60;;;;;;;;;;5032781;28;20435;-74
2022/06/21 12:26:22;;;;;;;9.05;3.95;;;;;;;;;;5033054;28;20021;-74
2022/06/21 12:28:49;;;;;;;7.78;3.63;;;;;;;;;;5036042;28;20029;-74
2022/06/21 12:31:23;;;;;;;7.65;3.53;;;;;;;;;;5036394;28;20108;-74
2022/06/21 12:33:52;;;;;;;7.70;3.33;;;;;;;;;;5036526;28;20025;-74
2022/06/21 12:36:32;;;;;;;6.75;3.40;;;;;;;;;;5036116;28;20029;-74
2022/06/21 12:39:03;;;;;;;5.68;3.30;;;;;;;;;;5036781;28;20453;-73
2022/06/21 12:41:42;;;;;;;5.72;3.50;;;;;;;;;;5036333;28;20132;-74
2022/06/21 12:44:18;;;;;;;10.95;3.90;;;;;;;;;;5035960;28;20037;-73
2022/06/21 12:46:50;;;;;;;7.38;3.22;;;;;;;;;;5034958;28;20021;-73
2022/06/21 12:49:29;;;;;;;6.80;3.28;;;;;;;;;;5035637;28;20032;-73
2022/06/21 12:51:58;;;;;;;6.63;3.17;;;;;;;;;;5036094;28;20025;-73
2022/06/21 12:54:43;;;;;;;7.45;3.75;;;;;;;;;;5035957;28;20029;-74
2022/06/21 12:57:30;;;;;;;6.45;3.13;;;;;;;;;;5035520;28;20065;-73
2022/06/21 12:59:56;;;;;;;5.30;3.05;;;;;;;;;;5035827;28;20494;-73
2022/06/21 13:02:31;;;;;;;5.13;3.33;;;;;;;;;;5035852;28;20100;-73
2022/06/21 13:05:12;;;;;;;10.25;3.60;;;;;;;;;;5035554;28;20093;-73
2022/06/21 13:07:45;;;;;;;10.05;3.10;;;;;;;;;;5035907;28;20108;-73
2022/06/21 13:10:20;;;;;;;10.23;3.67;;;;;;;;;;5035668;28;20456;-73
2022/06/21 13:12:54;;;;;;;6.65;3.47;;;;;;;;;;5035819;28;20072;-74
2022/06/21 13:15:31;;;;;;;6.88;3.10;;;;;;;;;;5035751;28;20025;-73
2022/06/21 13:18:09;;;;;;;6.85;3.33;;;;;;;;;;5035354;28;20421;-73
2022/06/21 13:20:44;;;;;;;4.45;2.80;;;;;;;;;;5035992;28;20478;-74
2022/06/21 13:23:12;;;;;;;5.95;3.25;;;;;;;;;;5035683;28;20072;-73
2022/06/21 13:25:39;;;;;;;5.07;2.72;;;;;;;;;;5035320;28;20397;-73
2022/06/21 13:28:20;;;;;;;5.53;2.92;;;;;;;;;;5035712;28;20072;-73
2022/06/21 13:31:06;;;;;;;6.43;3.30;;;;;;;;;;5035682;28;20053;-73
2022/06/21 13:33:35;;;;;;;5.40;2.80;;;;;;;;;;5035564;28;20022;-73
2022/06/21 13:36:02;;;;;;;6.50;2.75;;;;;;;;;;5035498;28;20465;-73
2022/06/21 13:38:48;;;;;;;6.68;3.15;;;;;;;;;;5034942;28;20032;-73
2022/06/21 13:44:09;;;;;;;6.37;3.53;;;;;;;;;;5035436;28;20095;-73
2022/06/21 13:46:46;;;;;;;9.75;3.22;;;;;;;;;;5034989;28;20029;-73
2022/06/21 13:49:15;;;;;;;6.57;3.33;;;;;;;;;;5035354;28;20097;-73
2022/06/21 13:51:59;;;;;;;4.72;2.78;;;;;;;;;;5035105;28;20033;-73
2022/06/21 13:54:30;;;;;;;7.72;2.83;;;;;;;;;;5035076;28;20049;-73
2022/06/21 13:56:59;;;;;;;7.03;3.28;;;;;;;;;;5035113;28;20500;-72
2022/06/21 13:59:35;;;;;;;6.20;2.60;;;;;;;;;;5034516;28;20036;-72
2022/06/21 14:02:04;;;;;;;8.85;3.55;;;;;;;;;;5035140;28;20124;-73
2022/06/21 14:04:43;;;;;;;6.00;2.80;;;;;;;;;;5034836;28;20100;-73
2022/06/21 14:07:23;;;;;;;5.18;2.95;;;;;;;;;;5033371;28;20030;-73
2022/06/21 14:09:49;;;;;;;4.70;2.70;;;;;;;;;;5034750;28;20569;-73
2022/06/21 14:12:34;;;;;;;4.97;2.70;;;;;;;;;;5034708;28;20026;-74
2022/06/21 14:15:13;;;;;;;7.25;3.10;;;;;;;;;;5034286;28;20036;-73
2022/06/21 14:17:40;;;;;;;6.88;2.97;;;;;;;;;;5034665;28;20018;-73
2022/06/21 14:20:19;;;;;;;8.10;3.05;;;;;;;;;;5034133;28;20116;-74
2022/06/21 14:22:58;;;;;;;8.60;3.25;;;;;;;;;;5034516;28;20021;-73
2022/06/21 14:25:34;;;;;;;7.47;3.13;;;;;;;;;;5034397;28;20029;-73
2022/06/21 14:28:15;;;;;;;6.13;3.00;;;;;;;;;;5034087;28;20018;-73
2022/06/21 14:30:42;;;;;;;6.97;3.22;;;;;;;;;;5034320;28;20083;-73
2022/06/21 14:33:15;;;;;;;3.85;2.70;;;;;;;;;;5034141;28;20060;-74
2022/06/21 14:35:45;;;;;;;8.18;3.40;;;;;;;;;;5033798;28;20022;-73
2022/06/21 14:38:17;;;;;;;8.23;3.35;;;;;;;;;;5034231;28;20064;-73
2022/06/21 14:40:46;;;;;;;5.15;2.70;;;;;;;;;;5033860;28;20049;-73
2022/06/21 14:43:25;;;;;;;9.43;2.70;;;;;;;;;;5033663;28;20028;-73
2022/06/21 14:45:56;;;;;;;13.55;3.28;;;;;;;;;;5034016;28;20428;-72
2022/06/21 14:48:32;;;;;;;5.38;3.00;;;;;;;;;;5032133;28;20048;-72
2022/06/21 14:51:06;;;;;;;8.30;3.42;;;;;;;;;;5033269;28;20179;-74
2022/06/21 14:53:39;;;;;;;5.32;2.92;;;;;;;;;;5034165;28;20029;-72
2022/06/21 14:56:25;;;;;;;12.07;3.40;;;;;;;;;;5029403;28;20092;-74
2022/06/21 14:58:54;;;;;;;5.47;3.25;;;;;;;;;;5033725;28;20467;-73
2022/06/21 15:01:41;;;;;;;5.75;3.30;;;;;;;;;;5033701;28;20037;-73
2022/06/21 15:04:26;;;;;;;8.35;3.10;;;;;;;;;;5032685;28;20040;-73
2022/06/21 15:07:10;;;;;;;6.75;3.15;;;;;;;;;;5033641;28;20504;-73
2022/06/21 15:09:43;;;;;;;6.50;3.63;;;;;;;;;;5033344;28;20108;-72
2022/06/21 15:12:12;;;;;;;7.00;3.42;;;;;;;;;;5033915;28;20049;-74
2022/06/21 15:14:38;;;;;;;10.18;4.57;;;;;;;;;;5033382;28;20033;-72
2022/06/21 15:17:07;;;;;;;7.78;4.03;;;;;;;;;;5033022;28;20029;-72
2022/06/21 15:19:59;;;;;;;6.82;4.20;;;;;;;;;;5033334;28;20025;-72
2022/06/21 15:22:25;;;;;;;;;;;;;;;;;;5033427;28;20034;-72
2022/06/21 15:24:57;;;;;;;5.90;3.63;;;;;;;;;;5032866;28;19912;-72
2022/06/21 15:27:24;;;;;;;6.10;3.60;;;;;;;;;;5033281;28;20178;-72
2022/06/21 15:29:55;;;;;;;7.10;4.20;;;;;;;;;;5033253;28;20033;-75
2022/06/21 15:32:28;;;;;;;7.15;3.70;;;;;;;;;;5031796;28;20029;-72
2022/06/21 15:34:56;;;;;;;8.43;3.78;;;;;;;;;;5033183;28;20028;-71
2022/06/21 15:37:40;;;;;;;6.10;3.20;;;;;;;;;;5033027;28;20032;-72
2022/06/21 15:40:13;;;;;;;6.18;3.33;;;;;;;;;;5031717;28;20052;-72
2022/06/21 15:43:00;;;;;;;5.80;3.65;;;;;;;;;;5033095;28;20029;-72
2022/06/21 15:45:46;;;;;;;5.15;3.20;;;;;;;;;;5032067;28;20037;-72
2022/06/21 15:51:12;;;;;;;8.65;3.90;;;;;;;;;;5033167;28;20156;-73
2022/06/21 15:53:43;;;;;;;5.88;3.42;;;;;;;;;;5032750;28;20022;-73
2022/06/21 15:56:15;;;;;;;5.20;3.17;;;;;;;;;;5033394;28;20021;-73
2022/06/21 15:59:00;;;;;;;4.80;3.53;;;;;;;;;;5032634;28;20026;-73
2022/06/21 16:01:26;;;;;;;7.13;3.55;;;;;;;;;;5033568;28;20478;-73
2022/06/21 16:04:04;;;;;;;7.18;3.25;;;;;;;;;;5036910;28;20032;-73
2022/06/21 16:06:45;;;;;;;5.05;3.33;;;;;;;;;;5036670;28;20072;-73
2022/06/21 16:09:12;;;;;;;6.97;3.80;;;;;;;;;;5037169;28;20492;-74
2022/06/21 16:11:50;;;;;;;8.70;3.78;;;;;;;;;;5037684;28;20033;-73
2022/06/21 16:14:24;;;;;;;7.85;3.80;;;;;;;;;;5036477;28;20458;-73
2022/06/21 16:16:54;;;;;;;7.10;3.28;;;;;;;;;;5036875;28;20034;-74
2022/06/21 16:19:21;;;;;;;6.97;3.67;;;;;;;;;;5036845;28;20381;-74
2022/06/21 16:21:52;;;;;;;6.45;3.25;;;;;;;;;;5036293;28;20386;-73
2022/06/21 16:24:22;;;;;;;7.30;3.80;;;;;;;;;;5036879;28;20026;-74
2022/06/21 16:27:08;;;;;;;9.82;4.25;;;;;;;;;;5034974;28;20450;-74
2022/06/21 16:29:46;;;;;;;9.40;4.75;;;;;;;;;;5037074;28;20022;-73
2022/06/21 16:35:21;;;;;;;5.72;3.58;;;;;;;;;;5036425;28;20121;-74
2022/06/21 16:37:56;;;;;;;4.60;3.25;;;;;;;;;;5036464;28;20018;-73
2022/06/21 16:43:29;;;;;;;10.85;3.90;;;;;;;;;;5036389;28;20504;-73
2022/06/21 16:46:00;;;;;;;7.20;3.60;;;;;;;;;;5036396;28;20041;-73
2022/06/21 16:48:44;;;;;;;7.70;4.05;;;;;;;;;;5035959;28;20030;-72
2022/06/21 16:51:15;;;;;;;5.07;3.30;;;;;;;;;;5036278;28;20017;-73
2022/06/21 16:53:48;;;;;;;9.07;3.50;;;;;;;;;;5036154;28;20025;-73
2022/06/21 16:56:16;;;;;;;6.60;4.15;;;;;;;;;;5035799;28;20394;-73
2022/06/21 16:58:48;;;;;;;6.40;3.90;;;;;;;;;;5036156;28;20025;-72
2022/06/21 17:01:16;;;;;;;7.00;3.60;;;;;;;;;;5035002;28;20037;-73